Saturday, February 24, 2018, 10:40 PM EST
Back to Local

KBGR, Bangor Int'l Airport

Location: Bangor, ME, United States Lat: 44.8
Local Time: 10:40 PM EST ( 3:40 GMT) Lon: -68.817
Time Zone: US/Eastern Elev: 193 ft

Show me the last for .
Show Coded

Time T Td Feel RH Dir Speed Gust Alt SLP Vis Weather Sky Remarks
2018-02-24 21:53 31 20 23 63 350° 9 - 30.29 30.29 10 CLR None
2018-02-24 20:53 32 22 24 65 340° 10 - 30.27 30.27 10 SCT200 Pressure rising rapidly
2018-02-24 19:53 33 23 24 66 340° 13 - 30.23 30.23 10 BKN200 None
2018-02-24 18:53 36 23 26 58 320° 16 - 30.19 30.20 10 FEW050 OVC200 6-hr Min Temp (7pm): 36.0°F
6-hr Max Temp (7pm): 45.0°F
2018-02-24 17:53 38 23 29 54 310° 15 - 30.16 30.16 10 FEW048 BKN200 None
2018-02-24 16:53 41 24 35 50 290° 10 - 30.12 30.13 10 FEW048 BKN200 None
2018-02-24 15:53 43 25 34 48 290° 12 20 30.09 30.09 10 FEW045 BKN050 BKN200 None
2018-02-24 14:53 44 26 35 48 300° 13 25 30.07 30.07 10 BKN050 BKN200 None
2018-02-24 13:53 44 27 35 50 320° 17 22 30.04 30.04 10 SCT048 BKN060 None
2018-02-24 12:53 43 29 33 57 330° 13 25 30.02 30.02 10 BKN050 6-hr Min Temp (1pm): 33.1°F
6-hr Max Temp (1pm): 46.9°F
2018-02-24 11:53 46 27 38 47 310° 14 21 30.00 30.00 10 BKN050 None
2018-02-24 10:53 44 30 39 57 300° 10 - 30.00 30.00 10 BKN050 None
2018-02-24 09:53 41 30 37 64 290° 6 - 30.00 30.00 10 BKN048 None
2018-02-24 08:53 39 33 33 79 290° 8 - 29.99 29.99 10 FEW038 BKN050 None
2018-02-24 07:53 35 34 31 95 280° 5 - 29.97 29.97 10 FEW038 BKN050 None
2018-02-24 06:53 33 32 - 95 - Calm - 29.93 29.94 10 SCT006 BKN043 BKN050 24-hr Precip Total (7am): 0.06"
6-hr Min Temp (7am): 30.9°F
6-hr Max Temp (7am): 35.1°F
2018-02-24 06:24 32 32 29 100 220° 3 - 29.91 - 10 SCT006 BKN043 None
2018-02-24 05:53 33 32 28 95 230° 6 - 29.89 29.90 10 OVC006 None
2018-02-24 04:53 34 33 28 96 210° 7 - 29.88 29.89 10 OVC007 None
2018-02-24 03:53 35 33 30 92 220° 6 - 29.88 29.89 10 OVC008 None
2018-02-24 03:19 35 34 31 95 230° 5 - 29.89 - 10 OVC009 None
2018-02-24 02:53 35 34 31 95 240° 5 - 29.90 29.90 10 OVC010 None
2018-02-24 02:26 35 34 30 95 210° 6 - 29.91 - 10 OVC010 None
2018-02-24 01:53 34 34 28 100 200° 7 - 29.92 29.93 10 OVC007 None
2018-02-24 00:53 34 33 25 96 200° 12 - 29.96 29.96 10 OVC008 6-hr Precip Total (1am): 0.06"
6-hr Min Temp (1am): 30.0°F
6-hr Max Temp (1am): 34.0°F
2018-02-23 23:53 34 32 23 92 200° 13 18 29.99 30.00 7 OVC008 1-hr Precip Total: Trace
24-hr Min Temp (12am): 17.1°F
24-hr Max Temp (12am): 43.0°F
2018-02-23 22:53 34 32 25 92 190° 13 - 30.04 30.05 4 -SN BR OVC009 Pressure falling rapidly
1-hr Precip Total: Trace

Support USWX by starting your Amazon purchase here.